Time;durP1;ratioP1;P1;durP2;ratioP2;P2;SDS_P1;SDS_P2;PMS_P1;PMS_P2;Temp;Humidity;BMP_temperature;BMP_pressure;BME280_temperature;BME280_humidity;BME280_pressure;Samples;Min_cycle;Max_cycle;Signal;HPM_P1;HPM_P2
2023/01/26 00:02:03;;;;;;;27.98;9.45;;;2.10;99.90;;;;;;4853623;29;20048;-80
2023/01/26 00:04:28;;;;;;;27.85;9.75;;;0.50;99.90;;;;;;4873762;29;20044;-80
2023/01/26 00:06:54;;;;;;;27.25;9.35;;;0.60;99.90;;;;;;4874135;29;20116;-80
2023/01/26 00:09:20;;;;;;;27.63;9.23;;;1.60;99.90;;;;;;4877812;29;20048;-80
2023/01/26 00:11:46;;;;;;;28.83;8.88;;;0.50;99.90;;;;;;4872181;29;20060;-80
2023/01/26 00:14:11;;;;;;;23.23;8.77;;;1.30;99.90;;;;;;4873206;29;20052;-80
2023/01/26 00:16:38;;;;;;;29.70;9.57;;;0.50;99.90;;;;;;4896386;29;20512;-80
2023/01/26 00:19:04;;;;;;;31.08;10.57;;;0.50;99.90;;;;;;4863504;29;20073;-80
2023/01/26 00:21:29;;;;;;;28.15;9.60;;;0.50;99.90;;;;;;4892001;29;20075;-80
2023/01/26 00:23:56;;;;;;;27.83;9.75;;;0.50;99.90;;;;;;4863033;29;20052;-80
2023/01/26 00:26:25;;;;;;;28.63;9.90;;;0.40;99.90;;;;;;4886688;29;20052;-80
2023/01/26 00:28:52;;;;;;;27.95;9.82;;;1.60;99.90;;;;;;4899610;29;20520;-80
2023/01/26 00:31:23;;;;;;;30.60;10.85;;;1.40;99.90;;;;;;4873020;29;20036;-80
2023/01/26 00:33:50;;;;;;;30.02;10.05;;;0.50;99.90;;;;;;4895193;29;20044;-80
2023/01/26 00:36:16;;;;;;;28.13;8.45;;;0.60;99.90;;;;;;4877116;29;20047;-80
2023/01/26 00:38:42;;;;;;;31.88;9.55;;;2.10;99.90;;;;;;4870697;29;20044;-80
2023/01/26 00:42:05;;;;;;;34.80;10.32;;;0.50;99.90;;;;;;4873088;29;20035;-80
2023/01/26 00:43:54;;;;;;;27.23;9.65;;;2.00;99.90;;;;;;4891567;29;20041;-79
2023/01/26 00:46:20;;;;;;;32.85;10.23;;;0.50;99.90;;;;;;4891919;29;20047;-80
2023/01/26 00:48:45;;;;;;;32.00;10.48;;;0.50;99.90;;;;;;4860074;29;20043;-80
2023/01/26 00:51:11;;;;;;;29.05;9.40;;;0.50;99.90;;;;;;4854321;29;20044;-79
2023/01/26 00:53:37;;;;;;;32.28;9.70;;;0.50;99.90;;;;;;4868237;29;20033;-79
2023/01/26 00:56:02;;;;;;;35.15;11.38;;;0.50;99.90;;;;;;4874537;29;20048;-80
2023/01/26 00:58:28;;;;;;;35.47;10.55;;;0.50;99.90;;;;;;4872451;29;20119;-80
2023/01/26 01:00:54;;;;;;;38.50;11.10;;;2.20;99.90;;;;;;4856564;29;20040;-80
2023/01/26 01:03:19;;;;;;;25.63;8.07;;;0.50;99.90;;;;;;4878955;29;20284;-79
2023/01/26 01:05:45;;;;;;;36.13;10.87;;;0.50;99.90;;;;;;4877428;29;20331;-80
2023/01/26 01:08:11;;;;;;;35.33;12.02;;;1.10;99.90;;;;;;4861099;29;20059;-79
2023/01/26 01:10:36;;;;;;;30.30;9.82;;;1.40;99.90;;;;;;4872446;29;20048;-80
2023/01/26 01:13:02;;;;;;;31.85;10.13;;;0.50;99.90;;;;;;4854915;29;20036;-79
2023/01/26 01:15:28;;;;;;;37.47;11.37;;;2.30;99.90;;;;;;4870573;29;20049;-79
2023/01/26 01:17:53;;;;;;;36.17;10.57;;;0.60;99.90;;;;;;4872533;29;20316;-80
2023/01/26 01:20:19;;;;;;;33.60;10.97;;;2.80;99.90;;;;;;4859441;29;20280;-79
2023/01/26 01:22:45;;;;;;;30.02;9.63;;;0.60;99.90;;;;;;4863635;29;20135;-79
2023/01/26 01:25:11;;;;;;;32.90;11.30;;;0.60;99.90;;;;;;4887225;29;20049;-79
2023/01/26 01:27:36;;;;;;;39.40;11.90;;;0.50;99.90;;;;;;4874470;29;20378;-79
2023/01/26 01:30:06;;;;;;;36.38;11.25;;;0.50;99.90;;;;;;4893402;29;20067;-79
2023/01/26 01:32:34;;;;;;;30.83;9.60;;;0.50;99.90;;;;;;4875313;29;20044;-79
2023/01/26 01:34:59;;;;;;;35.83;10.80;;;0.50;99.90;;;;;;4872242;29;20044;-79
2023/01/26 01:37:28;;;;;;;37.08;10.98;;;1.30;99.90;;;;;;4890211;29;20048;-79
2023/01/26 01:39:54;;;;;;;36.47;11.10;;;0.50;99.90;;;;;;4875233;29;20401;-79
2023/01/26 01:42:21;;;;;;;38.05;10.38;;;1.00;99.90;;;;;;4869841;29;20047;-79
2023/01/26 01:45:21;;;;;;;36.00;11.57;;;0.50;99.90;;;;;;4874650;29;20051;-79
2023/01/26 01:47:47;;;;;;;34.17;10.85;;;0.60;99.90;;;;;;4871994;29;20500;-79
2023/01/26 01:50:17;;;;;;;37.08;11.20;;;1.80;99.90;;;;;;4887874;29;20048;-79
2023/01/26 01:52:43;;;;;;;38.17;10.98;;;0.60;99.90;;;;;;4885072;29;20045;-79
2023/01/26 01:55:10;;;;;;;35.42;10.95;;;0.60;99.90;;;;;;4871897;29;20077;-78
2023/01/26 01:57:44;;;;;;;33.83;10.05;;;0.60;99.90;;;;;;4876127;29;20039;-79
2023/01/26 02:00:13;;;;;;;35.83;10.32;;;0.60;99.90;;;;;;4887375;29;20045;-78
2023/01/26 02:02:40;;;;;;;33.80;9.65;;;0.60;99.90;;;;;;4887458;29;20047;-79
2023/01/26 02:05:23;;;;;;;31.23;9.80;;;0.60;99.90;;;;;;4876689;29;20085;-80
2023/01/26 02:07:49;;;;;;;41.22;11.05;;;0.80;99.90;;;;;;4871854;29;20044;-79
2023/01/26 02:10:18;;;;;;;37.60;11.00;;;1.30;99.90;;;;;;4869446;29;20128;-79
2023/01/26 02:12:46;;;;;;;38.92;9.88;;;1.00;99.90;;;;;;4889556;29;20080;-79
2023/01/26 02:15:13;;;;;;;33.95;9.38;;;0.70;99.90;;;;;;4893705;29;20083;-79
2023/01/26 02:17:39;;;;;;;34.20;9.95;;;0.70;99.90;;;;;;4891513;29;20047;-79
2023/01/26 02:20:40;;;;;;;29.42;9.02;;;0.70;99.90;;;;;;4885551;29;20044;-78
2023/01/26 02:23:30;;;;;;;32.13;10.05;;;0.70;99.90;;;;;;4875819;29;20040;-79
2023/01/26 02:26:04;;;;;;;31.88;9.82;;;0.70;99.90;;;;;;4883353;29;20135;-79
2023/01/26 02:28:29;;;;;;;27.75;9.35;;;0.80;99.90;;;;;;4887027;29;20048;-79
2023/01/26 02:30:56;;;;;;;29.00;9.57;;;0.70;99.90;;;;;;4871081;29;20055;-79
2023/01/26 02:33:24;;;;;;;30.15;10.02;;;0.70;99.90;;;;;;4870023;29;20051;-79
2023/01/26 02:35:50;;;;;;;34.17;9.48;;;1.70;99.90;;;;;;4870680;29;20050;-80
2023/01/26 02:38:18;;;;;;;26.95;9.15;;;0.70;99.90;;;;;;4877377;29;20040;-79
2023/01/26 02:41:05;;;;;;;36.90;10.45;;;0.80;99.90;;;;;;4882152;29;20059;-79
2023/01/26 02:43:31;;;;;;;31.08;9.30;;;0.70;99.90;;;;;;4886454;29;20405;-79
2023/01/26 02:45:58;;;;;;;32.60;10.30;;;2.20;99.90;;;;;;4858083;29;20412;-79
2023/01/26 02:51:08;;;;;;;29.88;9.18;;;0.80;99.90;;;;;;4879439;29;20079;-79
2023/01/26 02:53:34;;;;;;;32.03;10.18;;;1.50;99.90;;;;;;4860009;29;20067;-79
2023/01/26 02:55:59;;;;;;;35.97;9.82;;;0.80;99.90;;;;;;4874169;29;20408;-79
2023/01/26 02:58:25;;;;;;;30.90;9.18;;;1.10;99.90;;;;;;4874524;29;20075;-79
2023/01/26 03:00:51;;;;;;;37.92;10.20;;;1.60;99.90;;;;;;4881504;29;20425;-79
2023/01/26 03:03:21;;;;;;;34.50;9.80;;;1.50;99.90;;;;;;4856737;29;20040;-79
2023/01/26 03:05:48;;;;;;;34.63;9.23;;;1.50;99.90;;;;;;4867127;29;20104;-79
2023/01/26 03:08:13;;;;;;;30.50;10.02;;;1.20;99.90;;;;;;4858150;29;20432;-79
2023/01/26 03:10:40;;;;;;;31.10;9.95;;;2.30;99.90;;;;;;4887281;29;20123;-80
2023/01/26 03:13:06;;;;;;;35.63;10.23;;;0.80;99.90;;;;;;4870480;29;20108;-79
2023/01/26 03:15:46;;;;;;;38.03;9.98;;;0.80;99.90;;;;;;4883534;29;20103;-79
2023/01/26 03:29:13;;;;;;;35.50;8.88;;;0.90;99.90;;;;;;4876058;29;20055;-79
2023/01/26 03:31:39;;;;;;;32.05;9.15;;;1.90;99.90;;;;;;4858916;29;20103;-79
2023/01/26 03:34:05;;;;;;;27.55;8.52;;;0.90;99.90;;;;;;4870878;29;20381;-79
2023/01/26 03:36:30;;;;;;;26.30;8.10;;;1.30;99.90;;;;;;4860281;29;20115;-79
2023/01/26 03:38:56;;;;;;;37.00;10.63;;;1.80;99.90;;;;;;4876984;29;20036;-79
2023/01/26 03:57:48;;;;;;;28.13;9.50;;;0.90;99.90;;;;;;4875595;29;20425;-79
2023/01/26 04:00:14;;;;;;;31.83;9.40;;;1.40;99.90;;;;;;4895805;29;20087;-79
2023/01/26 04:08:27;;;;;;;37.72;9.57;;;1.00;99.90;;;;;;4855496;29;20087;-79
2023/01/26 04:10:54;;;;;;;33.33;8.93;;;1.00;99.90;;;;;;4882943;29;20424;-79
2023/01/26 04:21:38;;;;;;;33.10;9.65;;;1.00;99.90;;;;;;4893344;29;20164;-80
2023/01/26 04:24:14;;;;;;;26.15;8.57;;;1.10;99.90;;;;;;4889338;29;20516;-80
2023/01/26 04:26:41;;;;;;;32.72;9.95;;;1.00;99.90;;;;;;4886961;29;20044;-80
2023/01/26 04:29:11;;;;;;;38.90;9.68;;;1.00;99.90;;;;;;4875955;29;20029;-80
2023/01/26 04:31:38;;;;;;;29.58;9.45;;;1.40;99.90;;;;;;4876709;29;20268;-80
2023/01/26 04:34:06;;;;;;;41.45;11.00;;;1.50;99.90;;;;;;4888546;29;20216;-80
2023/01/26 04:36:33;;;;;;;37.20;9.88;;;1.10;99.90;;;;;;4870188;29;20124;-80
2023/01/26 04:38:59;;;;;;;38.00;10.80;;;1.00;99.90;;;;;;4862811;29;20044;-80
2023/01/26 04:41:24;;;;;;;33.92;10.23;;;1.00;99.90;;;;;;4873317;29;20045;-80
2023/01/26 04:43:50;;;;;;;34.40;9.97;;;-0.30;99.90;;;;;;4890075;29;20051;-79
2023/01/26 04:46:16;;;;;;;34.57;10.70;;;1.70;99.90;;;;;;4872855;29;20293;-80
2023/01/26 04:48:42;;;;;;;29.30;8.95;;;1.10;99.90;;;;;;4892734;29;20052;-79
2023/01/26 04:51:12;;;;;;;46.13;11.35;;;1.10;99.90;;;;;;4883493;29;20048;-80
2023/01/26 04:53:41;;;;;;;35.03;10.40;;;1.10;99.90;;;;;;4889249;29;20040;-80
2023/01/26 04:56:18;;;;;;;35.50;9.30;;;0.80;99.90;;;;;;4890523;29;20127;-80
2023/01/26 04:58:44;;;;;;;33.85;10.48;;;1.10;99.90;;;;;;4873234;29;20146;-80
2023/01/26 05:01:09;;;;;;;37.65;9.55;;;1.10;99.90;;;;;;4885795;29;20497;-80
2023/01/26 05:03:35;;;;;;;36.50;9.98;;;2.10;99.90;;;;;;4864179;29;20032;-80
2023/01/26 05:06:01;;;;;;;32.35;9.50;;;1.20;99.90;;;;;;4893456;29;20478;-79
2023/01/26 05:08:26;;;;;;;52.65;11.07;;;1.20;99.90;;;;;;4878527;29;20037;-80
2023/01/26 05:10:52;;;;;;;50.67;11.50;;;1.10;99.90;;;;;;4875334;29;20039;-80
2023/01/26 05:13:18;;;;;;;42.00;10.83;;;1.20;99.90;;;;;;4880535;29;20324;-80
2023/01/26 05:15:44;;;;;;;39.03;9.98;;;1.20;99.90;;;;;;4875154;29;21073;-80
2023/01/26 05:18:10;;;;;;;44.70;10.38;;;1.20;99.90;;;;;;4886004;29;20076;-80
2023/01/26 05:20:35;;;;;;;47.10;11.55;;;2.50;99.90;;;;;;4893248;29;20059;-80
2023/01/26 05:23:01;;;;;;;45.83;10.97;;;1.20;99.90;;;;;;4890882;29;20039;-80
2023/01/26 05:25:27;;;;;;;48.40;11.75;;;1.50;99.90;;;;;;4869895;29;20051;-80
2023/01/26 05:27:53;;;;;;;47.45;12.05;;;1.30;99.90;;;;;;4886159;29;20492;-80
2023/01/26 05:30:18;;;;;;;42.72;11.45;;;1.30;99.90;;;;;;4861416;29;20227;-80
2023/01/26 05:32:44;;;;;;;46.30;11.98;;;1.30;99.90;;;;;;4857691;29;20496;-80
2023/01/26 05:35:10;;;;;;;39.13;10.50;;;1.30;99.90;;;;;;4846494;29;20127;-81
2023/01/26 05:37:36;;;;;;;52.97;11.60;;;1.30;99.90;;;;;;4888098;29;20040;-81
2023/01/26 05:40:02;;;;;;;44.33;11.00;;;1.30;99.90;;;;;;4892180;29;20473;-81
2023/01/26 05:42:28;;;;;;;42.55;10.43;;;1.30;99.90;;;;;;4874392;29;20087;-81
2023/01/26 05:44:54;;;;;;;39.45;9.50;;;1.30;99.90;;;;;;4872447;29;20052;-81
2023/01/26 05:47:20;;;;;;;47.33;11.10;;;1.30;99.90;;;;;;4872569;29;20046;-81
2023/01/26 05:49:45;;;;;;;50.38;11.32;;;1.30;99.90;;;;;;4873037;29;20051;-81
2023/01/26 05:52:15;;;;;;;53.75;12.20;;;1.40;99.90;;;;;;4887993;29;20040;-81
2023/01/26 05:54:42;;;;;;;52.05;11.90;;;1.40;99.90;;;;;;4894662;29;20130;-81
2023/01/26 05:57:08;;;;;;;47.05;11.05;;;1.80;99.90;;;;;;4857029;29;20040;-78
2023/01/26 05:59:34;;;;;;;42.85;11.48;;;1.40;99.90;;;;;;4864287;29;20123;-77
2023/01/26 06:02:00;;;;;;;41.47;11.63;;;1.40;99.90;;;;;;4863114;29;20119;-77
2023/01/26 06:04:26;;;;;;;48.67;12.07;;;0.10;99.90;;;;;;4873650;29;20413;-77
2023/01/26 06:06:53;;;;;;;44.20;12.23;;;1.70;99.90;;;;;;4898583;29;20044;-78
2023/01/26 06:09:19;;;;;;;36.67;10.45;;;1.40;99.90;;;;;;4898321;29;20047;-78
2023/01/26 06:11:45;;;;;;;47.50;10.73;;;1.50;99.90;;;;;;4898482;29;20052;-78
2023/01/26 06:14:11;;;;;;;50.60;13.02;;;1.40;99.90;;;;;;4885231;29;20314;-78
2023/01/26 06:16:37;;;;;;;49.55;11.80;;;1.40;99.90;;;;;;4878982;29;20112;-78
2023/01/26 06:19:03;;;;;;;54.80;11.75;;;1.40;99.90;;;;;;4879523;29;20545;-78
2023/01/26 06:21:30;;;;;;;48.55;12.10;;;1.40;99.90;;;;;;4879523;29;20410;-77
2023/01/26 06:23:56;;;;;;;46.72;11.48;;;1.60;99.90;;;;;;4879737;29;20374;-78
2023/01/26 06:26:23;;;;;;;47.65;12.73;;;1.50;99.90;;;;;;4876470;29;20147;-78
2023/01/26 06:28:49;;;;;;;47.13;12.23;;;0.80;99.90;;;;;;4889784;29;20456;-78
2023/01/26 06:31:15;;;;;;;;;;;1.50;99.90;;;;;;4898189;29;20404;-78
2023/01/26 06:33:41;;;;;;;45.78;11.05;;;1.50;99.90;;;;;;4882136;29;19926;-77
2023/01/26 06:36:10;;;;;;;42.10;9.90;;;1.40;99.90;;;;;;4884889;29;20048;-78
2023/01/26 06:38:36;;;;;;;41.30;9.55;;;1.50;99.90;;;;;;4863510;29;20045;-78
2023/01/26 06:41:05;;;;;;;32.80;9.82;;;1.40;99.90;;;;;;4882121;29;20032;-78
2023/01/26 06:43:35;;;;;;;42.40;11.10;;;1.40;99.90;;;;;;4897400;29;20071;-78
2023/01/26 06:46:02;;;;;;;31.42;9.98;;;2.30;99.90;;;;;;4882254;29;20044;-78
2023/01/26 06:48:30;;;;;;;47.08;10.18;;;1.40;99.90;;;;;;4881927;29;20506;-78
2023/01/26 06:51:02;;;;;;;35.45;10.35;;;1.40;99.90;;;;;;4888298;29;20317;-78
2023/01/26 06:53:41;;;;;;;43.20;10.07;;;1.40;99.90;;;;;;4880695;29;20048;-78
2023/01/26 06:56:07;;;;;;;46.35;10.23;;;1.40;99.90;;;;;;4878911;29;20047;-77
2023/01/26 06:58:32;;;;;;;39.45;9.93;;;1.40;99.90;;;;;;4846031;29;20029;-78
2023/01/26 07:00:59;;;;;;;50.72;11.75;;;1.40;99.90;;;;;;4863490;29;20036;-78
2023/01/26 07:03:25;;;;;;;;;;;1.40;99.90;;;;;;4878916;29;20036;-78
2023/01/26 07:05:50;;;;;;;68.50;13.57;;;1.40;99.90;;;;;;4878900;29;19923;-78
2023/01/26 07:08:16;;;;;;;49.63;11.45;;;1.40;99.90;;;;;;4880797;29;20385;-78
2023/01/26 07:10:42;;;;;;;65.63;12.35;;;2.30;99.90;;;;;;4890051;29;20119;-78
2023/01/26 07:13:07;;;;;;;59.67;11.93;;;1.30;99.90;;;;;;4862556;29;20120;-78
2023/01/26 07:15:33;;;;;;;64.57;11.70;;;1.30;99.90;;;;;;4862677;29;20301;-78
2023/01/26 07:17:59;;;;;;;69.93;13.20;;;1.30;99.90;;;;;;4863525;29;20397;-78
2023/01/26 07:20:26;;;;;;;54.90;12.15;;;1.30;99.90;;;;;;4874479;29;20040;-78
2023/01/26 07:22:52;;;;;;;52.30;11.13;;;1.20;99.90;;;;;;4897215;29;20032;-78
2023/01/26 07:25:18;;;;;;;53.65;11.30;;;1.70;99.90;;;;;;4896987;29;20118;-78
2023/01/26 07:27:44;;;;;;;90.60;13.73;;;1.20;99.90;;;;;;4881371;29;20111;-78
2023/01/26 07:30:13;;;;;;;56.05;11.80;;;1.70;99.90;;;;;;4896846;29;20048;-78
2023/01/26 07:32:39;;;;;;;59.40;11.73;;;1.30;99.90;;;;;;4896315;29;20048;-78
2023/01/26 07:35:05;;;;;;;47.63;10.40;;;1.00;99.90;;;;;;4896089;29;20470;-77
2023/01/26 07:37:31;;;;;;;63.70;10.98;;;1.30;99.90;;;;;;4896264;29;20413;-78
2023/01/26 07:39:57;;;;;;;57.03;12.15;;;1.40;99.90;;;;;;4889149;29;20033;-78
2023/01/26 07:42:22;;;;;;;54.33;11.98;;;1.40;99.90;;;;;;4877935;29;20037;-78
2023/01/26 07:44:48;;;;;;;52.25;10.70;;;1.40;99.90;;;;;;4862590;29;20056;-78
2023/01/26 07:47:18;;;;;;;49.67;10.88;;;1.40;99.90;;;;;;4894529;29;20062;-78
2023/01/26 07:49:45;;;;;;;56.38;12.38;;;1.40;99.90;;;;;;4873730;29;20052;-78
2023/01/26 07:52:11;;;;;;;41.55;9.57;;;1.40;99.90;;;;;;4876705;29;20143;-78
2023/01/26 07:54:37;;;;;;;42.80;10.95;;;1.40;99.90;;;;;;4853604;29;20457;-78
2023/01/26 07:57:07;;;;;;;39.40;9.67;;;1.70;99.90;;;;;;4896754;29;20370;-78
2023/01/26 07:59:33;;;;;;;40.17;11.23;;;1.40;99.90;;;;;;4881908;29;20284;-78
2023/01/26 08:01:59;;;;;;;52.78;11.02;;;2.20;99.90;;;;;;4849522;29;20045;-78
2023/01/26 08:04:25;;;;;;;39.47;9.52;;;1.30;99.90;;;;;;4879868;29;20043;-78
2023/01/26 08:06:51;;;;;;;42.35;9.82;;;1.30;99.90;;;;;;4883169;29;20048;-78
2023/01/26 08:09:17;;;;;;;;;;;1.30;99.90;;;;;;4878416;29;20036;-78
2023/01/26 08:11:43;;;;;;;43.40;9.43;;;2.60;99.90;;;;;;4893685;29;19925;-78
2023/01/26 08:14:09;;;;;;;30.23;8.40;;;1.40;99.90;;;;;;4880554;29;20048;-78
2023/01/26 08:16:34;;;;;;;43.53;8.90;;;1.30;99.90;;;;;;4880549;29;20096;-78
2023/01/26 08:19:01;;;;;;;33.45;8.05;;;1.20;99.90;;;;;;4896598;29;20036;-78
2023/01/26 08:21:27;;;;;;;51.30;10.05;;;2.20;99.90;;;;;;4896187;29;20048;-78
2023/01/26 08:23:54;;;;;;;39.42;10.23;;;1.20;99.90;;;;;;4896199;29;20040;-78
2023/01/26 08:26:20;;;;;;;;;;;1.30;99.90;;;;;;4898843;29;20071;-78
2023/01/26 08:28:46;;;;;;;55.78;10.18;;;1.30;99.90;;;;;;4880542;29;20022;-78
2023/01/26 08:31:13;;;;;;;;;;;1.40;99.90;;;;;;4885001;29;20051;-78
2023/01/26 08:33:42;;;;;;;57.30;12.25;;;1.60;99.90;;;;;;4881201;29;19926;-78
2023/01/26 08:36:11;;;;;;;85.10;12.48;;;2.00;99.90;;;;;;4899669;29;20040;-78
2023/01/26 08:38:37;;;;;;;79.32;14.10;;;2.40;99.90;;;;;;4900572;29;20050;-79
2023/01/26 08:41:04;;;;;;;71.60;12.65;;;3.90;99.90;;;;;;4893399;29;20040;-78
2023/01/26 08:43:30;;;;;;;125.47;16.08;;;3.30;99.90;;;;;;4881558;29;20041;-78
2023/01/26 08:45:56;;;;;;;58.45;11.77;;;3.80;99.90;;;;;;4881148;29;20494;-79
2023/01/26 08:48:21;;;;;;;94.90;12.70;;;4.40;99.90;;;;;;4881118;29;20048;-79
2023/01/26 08:50:47;;;;;;;46.72;9.95;;;5.00;99.90;;;;;;4880967;29;20044;-78
2023/01/26 08:53:13;;;;;;;51.38;10.35;;;5.60;99.90;;;;;;4893711;29;20036;-79
2023/01/26 08:55:39;;;;;;;47.13;9.30;;;6.10;99.90;;;;;;4899193;29;20044;-79
2023/01/26 08:58:04;;;;;;;83.87;13.57;;;6.60;99.90;;;;;;4890313;29;20352;-79
2023/01/26 09:00:30;;;;;;;25.13;5.05;;;7.00;99.90;;;;;;4880741;29;20128;-79
2023/01/26 09:03:04;;;;;;;18.58;4.63;;;7.60;99.90;;;;;;4880841;29;20051;-79
2023/01/26 09:05:36;;;;;;;28.60;4.60;;;7.80;99.90;;;;;;4865853;29;20079;-79
2023/01/26 09:08:05;;;;;;;17.42;3.28;;;8.30;99.90;;;;;;4899744;29;20498;-79
2023/01/26 09:10:32;;;;;;;21.73;3.50;;;8.20;99.90;;;;;;4899455;29;20036;-79
2023/01/26 09:12:58;;;;;;;;;;;8.80;99.90;;;;;;4899629;29;20044;-79
2023/01/26 09:15:24;;;;;;;19.63;3.30;;;9.00;99.90;;;;;;4887701;29;19930;-79
2023/01/26 09:17:50;;;;;;;22.15;4.25;;;9.50;99.90;;;;;;4889547;29;20040;-79
2023/01/26 09:20:16;;;;;;;14.77;3.03;;;9.70;99.90;;;;;;4899077;29;20380;-79
2023/01/26 09:22:42;;;;;;;24.20;3.95;;;9.90;99.90;;;;;;4878969;29;20383;-79
2023/01/26 09:25:09;;;;;;;14.88;3.17;;;10.00;99.90;;;;;;4879812;29;20068;-79
2023/01/26 09:27:35;;;;;;;21.52;3.67;;;10.30;99.90;;;;;;4864739;29;20047;-80
2023/01/26 09:30:02;;;;;;;18.33;3.83;;;10.50;99.90;;;;;;4880045;29;20047;-80
2023/01/26 09:32:28;;;;;;;20.85;3.58;;;10.40;99.90;;;;;;4883030;29;20048;-80
2023/01/26 09:34:55;;;;;;;20.08;3.92;;;10.10;99.90;;;;;;4882822;29;20040;-80
2023/01/26 09:37:20;;;;;;;25.00;3.65;;;9.70;99.90;;;;;;4897893;29;20047;-80
2023/01/26 09:39:46;;;;;;;14.20;2.65;;;9.70;99.90;;;;;;4898767;29;20416;-79
2023/01/26 09:42:47;;;;;;;19.08;3.53;;;10.00;99.90;;;;;;4898985;29;20071;-80
2023/01/26 09:45:13;;;;;;;15.27;3.05;;;10.50;99.90;;;;;;4878014;29;20512;-80
2023/01/26 09:48:05;;;;;;;21.03;3.33;;;11.00;99.90;;;;;;4891662;29;20040;-77
2023/01/26 09:50:39;;;;;;;25.30;3.45;;;11.10;99.90;;;;;;4893095;29;20449;-80
2023/01/26 09:53:15;;;;;;;20.83;3.42;;;10.80;99.90;;;;;;4879252;29;20083;-79
2023/01/26 09:55:44;;;;;;;21.02;3.47;;;10.60;99.90;;;;;;4882546;29;20051;-77
2023/01/26 09:58:34;;;;;;;18.08;3.25;;;10.40;99.90;;;;;;4873112;29;20114;-78
2023/01/26 10:01:01;;;;;;;14.38;2.65;;;10.40;99.90;;;;;;4879318;29;20056;-78
2023/01/26 10:04:00;;;;;;;17.23;2.72;;;10.50;99.90;;;;;;4879432;29;20041;-79
2023/01/26 10:06:30;;;;;;;18.05;2.63;;;10.60;99.90;;;;;;4883144;29;20107;-78
2023/01/26 10:08:59;;;;;;;19.30;3.08;;;10.90;99.90;;;;;;4897702;29;20055;-78
2023/01/26 10:11:36;;;;;;;22.33;3.03;;;11.50;99.90;;;;;;4872314;29;20037;-79
2023/01/26 10:14:22;;;;;;;20.75;3.00;;;12.00;99.90;;;;;;4877362;29;20406;-79
2023/01/26 10:16:51;;;;;;;19.90;3.45;;;11.60;99.90;;;;;;4845420;29;20064;-79
2023/01/26 10:19:39;;;;;;;14.85;2.65;;;11.40;99.90;;;;;;4897547;29;20052;-78
2023/01/26 10:22:22;;;;;;;21.50;2.58;;;11.40;99.90;;;;;;4881883;29;20052;-78
2023/01/26 10:24:51;;;;;;;19.45;3.08;;;11.30;99.90;;;;;;4894944;29;20047;-78
2023/01/26 10:27:17;;;;;;;15.55;2.72;;;11.50;99.90;;;;;;4879052;29;20076;-78
2023/01/26 10:29:43;;;;;;;17.10;3.15;;;11.80;99.90;;;;;;4878738;29;20498;-79
2023/01/26 10:32:18;;;;;;;16.92;2.78;;;12.10;99.90;;;;;;4879489;29;20036;-78
2023/01/26 10:34:50;;;;;;;15.43;3.42;;;12.40;99.90;;;;;;4875063;29;20096;-78
2023/01/26 10:37:22;;;;;;;17.63;3.15;;;12.90;99.90;;;;;;4878791;29;20431;-79
2023/01/26 10:40:01;;;;;;;13.35;3.00;;;13.00;99.90;;;;;;4874106;29;20046;-79
2023/01/26 10:42:29;;;;;;;17.65;3.10;;;13.10;99.90;;;;;;4881681;29;20036;-79
2023/01/26 10:44:56;;;;;;;17.13;2.78;;;13.20;99.90;;;;;;4845815;29;20500;-78
2023/01/26 10:47:22;;;;;;;14.98;2.35;;;12.70;99.90;;;;;;4878666;29;20066;-79
2023/01/26 10:49:48;;;;;;;20.38;3.53;;;12.60;99.90;;;;;;4856929;29;20056;-78
2023/01/26 10:52:20;;;;;;;12.18;2.85;;;12.80;99.90;;;;;;4881127;29;20047;-79
2023/01/26 10:54:47;;;;;;;16.65;2.60;;;13.00;99.90;;;;;;4885456;29;20413;-79
2023/01/26 10:57:16;;;;;;;15.18;2.97;;;13.30;99.90;;;;;;4878436;29;20040;-79
2023/01/26 11:00:00;;;;;;;16.13;3.13;;;14.10;99.90;;;;;;4869485;29;20108;-79
2023/01/26 11:02:29;;;;;;;14.95;2.35;;;14.20;99.90;;;;;;4897378;29;20046;-79
2023/01/26 11:05:07;;;;;;;17.02;3.05;;;14.30;99.90;;;;;;4878417;29;20044;-79
2023/01/26 11:07:38;;;;;;;17.52;3.15;;;14.60;99.90;;;;;;4867024;29;20036;-79
2023/01/26 11:10:19;;;;;;;14.25;2.33;;;15.00;99.90;;;;;;4896573;29;20541;-79
2023/01/26 11:12:45;;;;;;;17.13;3.40;;;14.60;99.90;;;;;;4881312;29;20473;-79
2023/01/26 11:15:22;;;;;;;19.55;3.28;;;14.40;99.90;;;;;;4897223;29;20115;-79
2023/01/26 11:17:55;;;;;;;15.40;2.85;;;14.80;99.90;;;;;;4890212;29;20048;-79
2023/01/26 11:20:38;;;;;;;14.98;2.75;;;14.70;99.90;;;;;;4897344;29;20044;-79
2023/01/26 11:23:13;;;;;;;9.00;2.00;;;15.10;99.90;;;;;;4896524;29;20043;-79
2023/01/26 11:26:15;;;;;;;11.55;2.40;;;15.50;99.90;;;;;;4894735;29;20059;-79
2023/01/26 11:28:53;;;;;;;14.02;2.22;;;15.50;99.90;;;;;;4889803;29;20061;-80
2023/01/26 11:31:39;;;;;;;10.77;2.13;;;15.70;99.90;;;;;;4883686;29;20385;-79
2023/01/26 11:34:23;;;;;;;9.38;2.13;;;15.30;99.90;;;;;;4896996;29;20378;-80
2023/01/26 11:36:59;;;;;;;10.02;2.20;;;15.30;99.90;;;;;;4874606;29;20379;-79
2023/01/26 11:39:51;;;;;;;13.68;2.70;;;15.60;99.90;;;;;;4891533;29;20075;-80
2023/01/26 11:42:49;;;;;;;12.05;1.95;;;15.60;99.90;;;;;;4867490;29;20036;-80
2023/01/26 11:45:48;;;;;;;13.93;2.20;;;14.70;99.90;;;;;;4854489;29;20052;-79
2023/01/26 11:48:50;;;;;;;10.60;1.60;;;14.20;99.90;;;;;;4868183;29;20085;-80
2023/01/26 11:51:36;;;;;;;8.65;1.92;;;13.80;99.90;;;;;;4852674;29;20048;-79
2023/01/26 11:54:38;;;;;;;17.25;2.28;;;13.20;99.90;;;;;;4873658;29;20435;-79
2023/01/26 11:57:22;;;;;;;12.20;2.17;;;12.40;99.90;;;;;;4879936;29;20123;-79
2023/01/26 11:59:57;;;;;;;11.23;2.30;;;11.90;99.90;;;;;;4865795;29;20132;-79
2023/01/26 12:02:22;;;;;;;12.10;2.03;;;11.20;99.90;;;;;;4893112;29;20043;-79
2023/01/26 12:04:48;;;;;;;13.13;2.08;;;11.00;99.90;;;;;;4870583;29;20498;-79
2023/01/26 12:07:21;;;;;;;11.32;2.03;;;10.70;99.90;;;;;;4892316;29;20179;-79
2023/01/26 12:09:49;;;;;;;9.50;1.80;;;10.70;99.90;;;;;;4893665;29;20032;-79
2023/01/26 12:12:41;;;;;;;9.73;1.85;;;10.60;99.90;;;;;;4873853;29;20047;-79
2023/01/26 12:15:46;;;;;;;14.57;2.05;;;10.60;99.90;;;;;;4878878;29;20037;-79
2023/01/26 12:18:21;;;;;;;12.05;2.45;;;10.50;99.90;;;;;;4874725;29;20505;-79
2023/01/26 12:21:09;;;;;;;11.77;2.00;;;10.50;99.90;;;;;;4878277;29;20048;-79
2023/01/26 12:23:58;;;;;;;15.75;2.30;;;10.50;99.90;;;;;;4890278;29;20048;-79
2023/01/26 12:26:27;;;;;;;17.67;1.92;;;10.40;99.90;;;;;;4891579;29;20119;-79
2023/01/26 12:29:10;;;;;;;17.73;2.45;;;10.40;99.90;;;;;;4880872;29;20052;-79
2023/01/26 12:31:47;;;;;;;14.48;2.10;;;10.30;99.90;;;;;;4883429;29;20059;-79
2023/01/26 12:34:13;;;;;;;21.40;2.72;;;10.20;99.90;;;;;;4883519;29;20080;-80
2023/01/26 12:37:13;;;;;;;14.02;2.80;;;10.20;99.90;;;;;;4878680;29;20096;-80
2023/01/26 12:39:53;;;;;;;11.25;2.35;;;10.20;99.90;;;;;;4886957;29;20044;-79
2023/01/26 12:42:44;;;;;;;13.18;2.33;;;10.10;99.90;;;;;;4881466;29;20040;-79
2023/01/26 12:45:19;;;;;;;11.13;1.85;;;10.00;99.90;;;;;;4893921;29;20500;-79
2023/01/26 12:47:54;;;;;;;14.77;2.13;;;9.90;99.90;;;;;;4898786;29;20047;-79
2023/01/26 12:50:40;;;;;;;10.38;1.88;;;9.80;99.90;;;;;;4883196;29;20051;-79
2023/01/26 12:53:14;;;;;;;9.57;1.45;;;9.80;99.90;;;;;;4893336;29;20119;-79
2023/01/26 12:55:48;;;;;;;8.88;1.27;;;9.90;99.90;;;;;;4881996;29;20396;-79
2023/01/26 12:58:24;;;;;;;6.88;0.95;;;9.90;99.90;;;;;;4883307;29;20041;-79
2023/01/26 13:01:04;;;;;;;5.72;1.30;;;9.90;99.90;;;;;;4881134;29;20516;-79
2023/01/26 13:03:37;;;;;;;10.32;1.42;;;9.90;99.90;;;;;;4881353;29;20044;-79
2023/01/26 13:06:09;;;;;;;7.57;1.35;;;9.80;99.90;;;;;;4899688;29;20519;-79
2023/01/26 13:08:34;;;;;;;8.23;1.13;;;9.70;99.90;;;;;;4887830;29;20045;-79
2023/01/26 13:11:08;;;;;;;8.70;1.27;;;9.60;99.90;;;;;;4891094;29;20497;-79
2023/01/26 13:13:52;;;;;;;7.10;1.10;;;9.50;99.90;;;;;;4899355;29;20493;-79
2023/01/26 13:16:17;;;;;;;10.50;1.60;;;9.40;99.90;;;;;;4889989;29;20036;-79
2023/01/26 13:18:56;;;;;;;7.17;1.00;;;9.40;99.90;;;;;;4883555;29;20048;-79
2023/01/26 13:21:27;;;;;;;6.40;1.10;;;9.40;99.90;;;;;;4892615;29;20115;-79
2023/01/26 13:23:53;;;;;;;7.43;1.25;;;9.40;99.90;;;;;;4885573;29;20111;-79
2023/01/26 13:26:23;;;;;;;8.05;1.27;;;9.40;99.90;;;;;;4870209;29;20136;-80
2023/01/26 13:28:49;;;;;;;8.20;1.30;;;9.40;99.90;;;;;;4891733;29;20056;-79
2023/01/26 13:31:33;;;;;;;8.05;1.30;;;9.50;99.90;;;;;;4898738;29;20103;-80
2023/01/26 13:34:06;;;;;;;12.75;2.17;;;9.30;99.90;;;;;;4883341;29;20040;-79
2023/01/26 13:36:35;;;;;;;7.47;1.58;;;9.30;99.90;;;;;;4880064;29;20064;-79
2023/01/26 13:39:11;;;;;;;10.82;1.25;;;9.30;99.90;;;;;;4879958;29;20580;-78
2023/01/26 13:41:46;;;;;;;6.78;1.63;;;9.30;99.90;;;;;;4883054;29;20048;-79
2023/01/26 13:44:41;;;;;;;11.57;1.38;;;9.20;99.90;;;;;;4898381;29;20040;-79